Tucson, AZ

4:48 PM MST on March 01, 2015 (GMT -0700)
UA WRRC WEATHER | Change Station
CLOSE
Current Station
Personal Weather Station
Location: Tucson, AZ
Elevation: 2431 ft
Nearby Weather Stations

Elev 2431 ft 32.23 °N, 110.94 °W | Updated 11 minutes ago

Partly Cloudy
Partly Cloudy
74.2 °F
Feels Like 77 °F
N
4.0
Wind Variable Wind from ESE
Gusts 17.0 mph

Today
High -- | Low -- °F
--% Chance of Precip.
Yesterday
High -- | Low -- °F
Precip. -- in
6:51 AM 6:21 PM
Waxing Gibbous, 88% visible
Pressure 29.84 in
Visibility 8.0 miles
Clouds Clear
Heat Index 77 °F
Dew Point 42 °F
Humidity 32%
Rainfall 0.00 in
Snow Depth Not available.
UV 3 out of 12
Pollen 8.90 out of 12
Air Quality Not available.
Flu Activity Not available.
METAR KDMA 012258Z AUTO 22016G22KT 8SM CLR 24/05 A2992 RMK AO2 SLP104 T02350050 $

More Conditions Fewer Conditions

Pressure 29.84 in
Visibility 8.0 miles
Clouds Clear
Heat Index 77 °F
Dew Point 42 °F
Humidity 32%
Rainfall 0.00 in
Snow Depth Not available.
UV 3 out of 12
Pollen 8.90 out of 12
Air Quality Not available.
Flu Activity Not available.
METAR KDMA 012258Z AUTO 22016G22KT 8SM CLR 24/05 A2992 RMK AO2 SLP104 T02350050 $

More Conditions Fewer Conditions

10-Day Weather Forecast

Almanac

Astronomy

Mar. 01, 2015 Rise Set
Actual Time
Civil Twilight
Nautical Twilight
Astronomical Twilight
Moon
Length of Visible Light
Length of Day
Tomorrow will be .
, % of the Moon is Illuminated

Today's Extremes

State Highs State Lows

Community

WunderPhotos

Upload Photos

1,801,614 photos uploaded!

WunderBlogs® & News

Nearby

Air Quality

  Air Quality AQ Index Pollutant
Not available.

Snow Depth

Station Depth Elevation

Earthquake Activity

City Distance Mag. Time & Date
Minimum magnitude displayed is 2.5.

Coastal Water Temperatures

Place Temperature

Nearby Weather Stations